createdAt,value
2017-04-22T06:30:56.998Z,966.92
2017-04-22T06:31:37.568Z,966.95
2017-04-22T06:32:18.190Z,966.94
2017-04-22T06:32:58.767Z,966.88
2017-04-22T06:33:39.346Z,966.92
2017-04-22T06:34:19.929Z,966.93
2017-04-22T06:35:00.847Z,966.93
2017-04-22T06:35:41.826Z,966.91
2017-04-22T06:36:22.393Z,966.9
2017-04-22T06:37:03.039Z,966.86
2017-04-22T06:37:43.711Z,966.87
2017-04-22T06:38:24.301Z,966.89
2017-04-22T06:39:04.881Z,966.87
2017-04-22T06:39:45.556Z,966.89
2017-04-22T06:40:26.403Z,966.88
2017-04-22T06:41:07.533Z,966.92
2017-04-22T06:41:48.199Z,966.88
2017-04-22T06:42:28.780Z,966.88
2017-04-22T06:43:09.566Z,966.89
2017-04-22T06:43:50.138Z,966.87
2017-04-22T06:44:30.968Z,966.9
2017-04-22T06:45:11.546Z,966.93
2017-04-22T06:45:52.213Z,966.92
2017-04-22T06:46:33.148Z,966.92
2017-04-22T06:47:13.723Z,966.88
2017-04-22T06:47:54.302Z,966.91
2017-04-22T06:48:34.889Z,966.91
2017-04-22T06:49:15.465Z,966.9
2017-04-22T06:49:56.045Z,966.92
2017-04-22T06:50:36.633Z,966.9
2017-04-22T06:51:17.214Z,966.9
2017-04-22T06:51:57.798Z,966.96
2017-04-22T06:52:38.382Z,966.96
2017-04-22T06:53:19.019Z,966.92
2017-04-22T06:53:59.598Z,966.93
2017-04-22T06:54:40.172Z,966.92
2017-04-22T06:55:20.752Z,966.98
2017-04-22T06:56:01.333Z,966.96
2017-04-22T06:56:41.914Z,966.93
2017-04-22T06:57:22.498Z,966.94
2017-04-22T06:58:03.075Z,966.96
2017-04-22T06:58:43.647Z,966.97
2017-04-22T06:59:24.229Z,966.98
2017-04-22T07:00:04.797Z,966.97
2017-04-22T07:00:45.376Z,966.93
2017-04-22T07:01:25.954Z,967
2017-04-22T07:02:06.536Z,967
2017-04-22T07:02:47.120Z,966.99
2017-04-22T07:03:27.701Z,966.97
2017-04-22T07:04:08.281Z,966.96
2017-04-22T07:04:48.868Z,966.96
2017-04-22T07:05:29.447Z,966.91
2017-04-22T07:06:10.021Z,966.91
2017-04-22T07:06:50.605Z,966.93
2017-04-22T07:07:31.196Z,966.83
2017-04-22T07:08:11.768Z,966.9
2017-04-22T07:08:52.353Z,966.87
2017-04-22T07:09:32.929Z,966.84
2017-04-22T07:10:13.512Z,966.87
2017-04-22T07:10:54.098Z,966.87
2017-04-22T07:11:34.673Z,966.86
2017-04-22T07:12:15.260Z,966.85
2017-04-22T07:12:55.876Z,966.85
2017-04-22T07:13:36.455Z,966.83
2017-04-22T07:14:17.086Z,966.85
2017-04-22T07:14:57.636Z,966.85
2017-04-22T07:15:38.210Z,966.84
2017-04-22T07:16:18.796Z,966.85
2017-04-22T07:16:59.376Z,966.84
2017-04-22T07:17:39.955Z,966.85
2017-04-22T07:18:20.538Z,966.83
2017-04-22T07:19:01.330Z,966.81
2017-04-22T07:19:41.917Z,966.84
2017-04-22T07:20:22.499Z,966.83
2017-04-22T07:21:03.183Z,966.81
2017-04-22T07:21:43.761Z,966.81
2017-04-22T07:22:24.354Z,966.82
2017-04-22T07:23:04.935Z,966.85
2017-04-22T07:23:45.512Z,966.83
2017-04-22T07:24:26.108Z,966.78
2017-04-22T07:25:06.690Z,966.79
2017-04-22T07:25:47.269Z,966.8
2017-04-22T07:26:27.853Z,966.77
2017-04-22T07:27:08.435Z,966.72
2017-04-22T07:27:49.012Z,966.72
2017-04-22T07:28:29.595Z,966.7
2017-04-22T07:29:10.177Z,966.73
2017-04-22T07:29:50.756Z,966.76
2017-04-22T07:30:31.337Z,966.75
2017-04-22T07:31:11.940Z,966.76
2017-04-22T07:31:53.131Z,966.73
2017-04-22T07:32:33.719Z,966.73
2017-04-22T07:33:14.299Z,966.72
2017-04-22T07:33:54.879Z,966.76
2017-04-22T07:34:35.463Z,966.75
2017-04-22T07:35:16.025Z,966.71
2017-04-22T07:35:56.601Z,966.72
2017-04-22T07:36:37.166Z,966.71
2017-04-22T07:37:19.382Z,966.73
2017-04-22T07:37:59.970Z,966.69
2017-04-22T07:38:40.516Z,966.7
2017-04-22T07:39:21.080Z,966.67
2017-04-22T07:40:01.658Z,966.69
2017-04-22T07:40:42.225Z,966.68
2017-04-22T07:41:22.806Z,966.67
2017-04-22T07:42:03.373Z,966.67
2017-04-22T07:42:43.950Z,966.65
2017-04-22T07:43:24.529Z,966.64
2017-04-22T07:44:05.112Z,966.68
2017-04-22T07:44:45.687Z,966.67
2017-04-22T07:45:26.266Z,966.64
2017-04-22T07:46:06.849Z,966.66
2017-04-22T07:46:47.418Z,966.63
2017-04-22T07:47:28.003Z,966.68
2017-04-22T07:48:09.137Z,966.69
2017-04-22T07:48:49.721Z,966.63
2017-04-22T07:49:30.304Z,966.64
2017-04-22T07:50:10.887Z,966.65
2017-04-22T07:50:51.458Z,966.63
2017-04-22T07:51:32.047Z,966.63
2017-04-22T07:52:12.630Z,966.63
2017-04-22T07:52:53.209Z,966.64
2017-04-22T07:53:33.788Z,966.61
2017-04-22T07:54:14.368Z,966.6
2017-04-22T07:54:54.943Z,966.64
2017-04-22T07:55:35.525Z,966.63
2017-04-22T07:56:16.117Z,966.68
2017-04-22T07:56:56.684Z,966.67
2017-04-22T07:57:37.247Z,966.65
2017-04-22T07:58:17.835Z,966.64
2017-04-22T07:58:58.404Z,966.66
2017-04-22T07:59:38.981Z,966.63
2017-04-22T08:00:19.562Z,966.61
2017-04-22T08:01:00.145Z,966.61
2017-04-22T08:01:40.732Z,966.66
2017-04-22T08:02:21.308Z,966.61
2017-04-22T08:03:01.884Z,966.6
2017-04-22T08:03:42.461Z,966.61
2017-04-22T08:04:23.041Z,966.6
2017-04-22T08:05:03.629Z,966.6
2017-04-22T08:05:44.206Z,966.63
2017-04-22T08:06:24.779Z,966.61
2017-04-22T08:07:05.361Z,966.61
2017-04-22T08:07:45.946Z,966.58
2017-04-22T08:08:26.522Z,966.61
2017-04-22T08:09:07.102Z,966.55
2017-04-22T08:09:47.686Z,966.51
2017-04-22T08:10:28.267Z,966.52
2017-04-22T08:11:08.855Z,966.52
2017-04-22T08:11:50.146Z,966.52
2017-04-22T08:12:30.723Z,966.5
2017-04-22T08:13:11.295Z,966.54
2017-04-22T08:13:51.876Z,966.52
2017-04-22T08:14:32.455Z,966.58
2017-04-22T08:15:13.025Z,966.6
2017-04-22T08:15:53.611Z,966.64
2017-04-22T08:16:34.179Z,966.58
2017-04-22T08:17:14.759Z,966.65
2017-04-22T08:17:55.339Z,966.61
2017-04-22T08:18:35.920Z,966.64
2017-04-22T08:19:16.494Z,966.63
2017-04-22T08:19:57.066Z,966.67
2017-04-22T08:20:38.384Z,966.61
2017-04-22T08:21:18.966Z,966.62
2017-04-22T08:21:59.545Z,966.62
2017-04-22T08:22:40.119Z,966.62
2017-04-22T08:23:20.703Z,966.58
2017-04-22T08:24:01.282Z,966.63
2017-04-22T08:24:41.878Z,966.66
2017-04-22T08:25:22.450Z,966.61
2017-04-22T08:26:03.031Z,966.63
2017-04-22T08:26:43.614Z,966.64
2017-04-22T08:27:24.192Z,966.69
2017-04-22T08:28:04.775Z,966.69
2017-04-22T08:28:45.348Z,966.66
2017-04-22T08:29:25.936Z,966.7
2017-04-22T08:30:06.512Z,966.71
2017-04-22T08:30:47.090Z,966.71
2017-04-22T08:31:27.674Z,966.69
2017-04-22T08:32:08.257Z,966.72
2017-04-22T08:32:48.868Z,966.79
2017-04-22T08:33:29.419Z,966.78
2017-04-22T08:34:10.010Z,966.77
2017-04-22T08:34:50.590Z,966.77
2017-04-22T08:35:31.175Z,966.77
2017-04-22T08:36:11.761Z,966.78
2017-04-22T08:36:52.354Z,966.79
2017-04-22T08:37:32.938Z,966.81
2017-04-22T08:38:13.510Z,966.78
2017-04-22T08:38:54.096Z,966.79
2017-04-22T08:39:34.668Z,966.77
2017-04-22T08:40:15.250Z,966.76
2017-04-22T08:40:55.832Z,966.76
2017-04-22T08:41:36.417Z,966.7
2017-04-22T08:42:16.983Z,966.73
2017-04-22T08:42:57.563Z,966.73
2017-04-22T08:43:38.145Z,966.73
2017-04-22T08:44:18.726Z,966.74
2017-04-22T08:44:59.305Z,966.72
2017-04-22T08:45:39.895Z,966.75
2017-04-22T08:46:20.468Z,966.78
2017-04-22T08:47:01.049Z,966.75
2017-04-22T08:47:41.626Z,966.74
2017-04-22T08:48:22.191Z,966.74
2017-04-22T08:49:02.779Z,966.71
2017-04-22T08:49:43.346Z,966.72
2017-04-22T08:50:23.930Z,966.74
2017-04-22T08:51:04.505Z,966.75
2017-04-22T08:51:45.092Z,966.76
2017-04-22T08:52:25.669Z,966.76
2017-04-22T08:53:06.252Z,966.8
2017-04-22T08:53:46.837Z,966.78
2017-04-22T08:54:27.424Z,966.8
2017-04-22T08:55:08.009Z,966.78
2017-04-22T08:55:48.583Z,966.75
2017-04-22T08:56:29.158Z,966.74
2017-04-22T08:57:09.746Z,966.83
2017-04-22T08:57:50.313Z,966.85
2017-04-22T08:58:30.896Z,966.8
2017-04-22T08:59:11.477Z,966.77
2017-04-22T08:59:52.057Z,966.79
2017-04-22T09:00:32.642Z,966.8
2017-04-22T09:01:13.217Z,966.77
2017-04-22T09:01:53.796Z,966.85
2017-04-22T09:02:34.378Z,966.78
2017-04-22T09:03:14.946Z,966.85
2017-04-22T09:03:55.543Z,966.82
2017-04-22T09:04:36.118Z,966.81
2017-04-22T09:05:16.684Z,966.79
2017-04-22T09:05:57.275Z,966.75
2017-04-22T09:06:37.858Z,966.77
2017-04-22T09:07:18.452Z,966.76
2017-04-22T09:07:59.032Z,966.74
2017-04-22T09:08:39.614Z,966.74
2017-04-22T09:09:20.181Z,966.7
2017-04-22T09:10:00.761Z,966.71
2017-04-22T09:10:41.345Z,966.72
2017-04-22T09:11:21.920Z,966.69
2017-04-22T09:12:02.502Z,966.72
2017-04-22T09:12:43.083Z,966.62
2017-04-22T09:13:23.882Z,966.69
2017-04-22T09:14:04.533Z,966.68
2017-04-22T09:14:45.114Z,966.71
2017-04-22T09:15:25.690Z,966.65
2017-04-22T09:16:06.569Z,966.65
2017-04-22T09:16:47.155Z,966.69
2017-04-22T09:17:27.788Z,966.65
2017-04-22T09:18:08.353Z,966.69
2017-04-22T09:18:48.926Z,966.69
2017-04-22T09:19:29.511Z,966.67
2017-04-22T09:20:10.078Z,966.69
2017-04-22T09:20:50.651Z,966.67
2017-04-22T09:21:31.227Z,966.65
2017-04-22T09:22:11.809Z,966.67
2017-04-22T09:22:52.757Z,966.7
2017-04-22T09:23:33.342Z,966.7
2017-04-22T09:24:13.934Z,966.66
2017-04-22T09:24:54.501Z,966.71
2017-04-22T09:25:35.079Z,966.7
2017-04-22T09:26:15.643Z,966.69
2017-04-22T09:26:56.218Z,966.67
2017-04-22T09:27:36.784Z,966.66
2017-04-22T09:28:17.372Z,966.65
2017-04-22T09:28:57.958Z,966.67
2017-04-22T09:29:38.521Z,966.65
2017-04-22T09:30:19.118Z,966.69
2017-04-22T09:30:59.684Z,966.66
2017-04-22T09:31:40.270Z,966.64
2017-04-22T09:32:20.851Z,966.64
2017-04-22T09:33:01.430Z,966.62
2017-04-22T09:33:42.007Z,966.55
2017-04-22T09:34:22.595Z,966.58
2017-04-22T09:35:03.166Z,966.55
2017-04-22T09:35:43.908Z,966.53
2017-04-22T09:36:24.471Z,966.53
2017-04-22T09:37:05.048Z,966.5
2017-04-22T09:37:45.616Z,966.52
2017-04-22T09:38:26.187Z,966.52
2017-04-22T09:39:06.766Z,966.48
2017-04-22T09:39:47.333Z,966.47
2017-04-22T09:40:27.913Z,966.47
2017-04-22T09:41:08.482Z,966.47
2017-04-22T09:41:49.063Z,966.48
2017-04-22T09:42:29.641Z,966.45
2017-04-22T09:43:10.218Z,966.47
2017-04-22T09:43:50.803Z,966.39
2017-04-22T09:44:31.373Z,966.42
2017-04-22T09:45:11.968Z,966.4
2017-04-22T09:45:52.531Z,966.4
2017-04-22T09:46:33.095Z,966.4
2017-04-22T09:47:13.692Z,966.38
2017-04-22T09:47:54.263Z,966.37
2017-04-22T09:48:34.844Z,966.39
2017-04-22T09:49:15.431Z,966.42
2017-04-22T09:49:56.001Z,966.34
2017-04-22T09:50:36.583Z,966.35
2017-04-22T09:51:17.155Z,966.37
2017-04-22T09:51:57.732Z,966.4
2017-04-22T09:52:38.318Z,966.39
2017-04-22T09:53:18.882Z,966.43
2017-04-22T09:53:59.465Z,966.43
2017-04-22T09:54:40.044Z,966.43
2017-04-22T09:55:20.882Z,966.47
2017-04-22T09:56:01.573Z,966.41
2017-04-22T09:56:42.153Z,966.37
2017-04-22T09:57:22.733Z,966.41
2017-04-22T09:58:03.312Z,966.38
2017-04-22T09:58:44.107Z,966.38
2017-04-22T09:59:24.818Z,966.41
2017-04-22T10:00:05.383Z,966.36
2017-04-22T10:00:45.974Z,966.35
2017-04-22T10:01:26.715Z,966.39
2017-04-22T10:02:07.448Z,966.38
2017-04-22T10:02:48.168Z,966.38
2017-04-22T10:03:29.218Z,966.29
2017-04-22T10:04:10.147Z,966.37
2017-04-22T10:04:50.863Z,966.32
2017-04-22T10:05:31.436Z,966.37
2017-04-22T10:06:12.020Z,966.4
2017-04-22T10:06:52.600Z,966.34
2017-04-22T10:07:33.182Z,966.33
2017-04-22T10:08:13.767Z,966.3
2017-04-22T10:08:54.347Z,966.34
2017-04-22T10:09:34.930Z,966.34
2017-04-22T10:10:15.513Z,966.34
2017-04-22T10:10:56.164Z,966.34
2017-04-22T10:11:36.808Z,966.34
2017-04-22T10:12:17.618Z,966.36
2017-04-22T10:12:58.202Z,966.34
2017-04-22T10:13:38.780Z,966.35
2017-04-22T10:14:19.357Z,966.37
2017-04-22T10:14:59.932Z,966.33
2017-04-22T10:15:40.511Z,966.34
2017-04-22T10:16:21.097Z,966.35
2017-04-22T10:17:01.683Z,966.42
2017-04-22T10:17:42.252Z,966.38
2017-04-22T10:18:22.838Z,966.38
2017-04-22T10:19:03.427Z,966.36
2017-04-22T10:19:44.035Z,966.31
2017-04-22T10:20:24.614Z,966.33
2017-04-22T10:21:05.457Z,966.34
2017-04-22T10:21:46.167Z,966.28
2017-04-22T10:22:26.905Z,966.33
2017-04-22T10:23:08.093Z,966.3
2017-04-22T10:23:49.100Z,966.31
2017-04-22T10:24:29.842Z,966.28
2017-04-22T10:25:10.823Z,966.31
2017-04-22T10:25:51.838Z,966.32
2017-04-22T10:26:32.722Z,966.35
2017-04-22T10:27:13.434Z,966.32
2017-04-22T10:27:54.219Z,966.34
2017-04-22T10:28:35.052Z,966.28
2017-04-22T10:29:15.639Z,966.26
2017-04-22T10:29:56.697Z,966.25
2017-04-22T10:30:37.595Z,966.24
2017-04-22T10:31:18.406Z,966.22
2017-04-22T10:31:59.904Z,966.27
2017-04-22T10:32:40.611Z,966.22
2017-04-22T10:33:21.422Z,966.2
2017-04-22T10:34:02.133Z,966.2
2017-04-22T10:34:43.019Z,966.18
2017-04-22T10:35:23.848Z,966.16
2017-04-22T10:36:04.629Z,966.17
2017-04-22T10:36:45.815Z,966.15
2017-04-22T10:37:26.703Z,966.13
2017-04-22T10:38:07.397Z,966.14
2017-04-22T10:38:47.979Z,966.06
2017-04-22T10:39:28.985Z,966.1
2017-04-22T10:40:09.724Z,966.08
2017-04-22T10:40:50.517Z,966.09
2017-04-22T10:41:31.369Z,966.09
2017-04-22T10:42:11.947Z,966.06
2017-04-22T10:42:52.539Z,966.12
2017-04-22T10:43:33.116Z,966.08
2017-04-22T10:44:13.984Z,966.1
2017-04-22T10:44:54.917Z,966.05
2017-04-22T10:45:35.723Z,966.11
2017-04-22T10:46:16.591Z,966.13
2017-04-22T10:46:57.737Z,966.09
2017-04-22T10:47:38.507Z,966.05
2017-04-22T10:48:19.094Z,966.08
2017-04-22T10:48:59.677Z,966
2017-04-22T10:49:40.256Z,966.08
2017-04-22T10:50:20.842Z,966.07
2017-04-22T10:51:01.429Z,966.07
2017-04-22T10:51:42.279Z,966.01
2017-04-22T10:52:22.864Z,966
2017-04-22T10:53:03.605Z,966.05
2017-04-22T10:53:44.478Z,966.02
2017-04-22T10:54:25.067Z,966.07
2017-04-22T10:55:05.651Z,966.07
2017-04-22T10:55:46.446Z,965.98
2017-04-22T10:56:27.429Z,966
2017-04-22T10:57:08.287Z,965.95
2017-04-22T10:57:49.072Z,966.02
2017-04-22T10:58:29.808Z,966.02
2017-04-22T10:59:10.373Z,966.05
2017-04-22T10:59:51.084Z,966.02
2017-04-22T11:00:31.830Z,966
2017-04-22T11:01:12.859Z,966.01
2017-04-22T11:01:53.601Z,965.94
2017-04-22T11:02:34.178Z,965.99
2017-04-22T11:03:15.152Z,965.97
2017-04-22T11:03:55.740Z,965.97
2017-04-22T11:04:36.595Z,965.91
2017-04-22T11:05:17.624Z,965.96
2017-04-22T11:05:58.397Z,965.92
2017-04-22T11:06:39.117Z,965.94
2017-04-22T11:07:19.914Z,965.95
2017-04-22T11:08:00.869Z,965.88
2017-04-22T11:08:42.017Z,965.91
2017-04-22T11:09:23.083Z,965.91
2017-04-22T11:10:03.732Z,965.85
2017-04-22T11:10:44.440Z,965.85
2017-04-22T11:11:25.048Z,965.87
2017-04-22T11:12:05.715Z,965.87
2017-04-22T11:12:46.780Z,965.86
2017-04-22T11:13:27.710Z,965.84
2017-04-22T11:14:08.654Z,965.88
2017-04-22T11:14:49.707Z,965.81
2017-04-22T11:15:30.482Z,965.87
2017-04-22T11:16:11.358Z,965.87
2017-04-22T11:16:52.376Z,965.76
2017-04-22T11:17:33.351Z,965.81
2017-04-22T11:18:14.358Z,965.81
2017-04-22T11:18:55.419Z,965.81
2017-04-22T11:19:36.139Z,965.78
2017-04-22T11:20:17.153Z,965.75
2017-04-22T11:20:58.371Z,965.79
2017-04-22T11:21:39.339Z,965.71
2017-04-22T11:22:20.256Z,965.75
2017-04-22T11:23:00.909Z,965.65
2017-04-22T11:23:41.750Z,965.62
2017-04-22T11:24:22.666Z,965.64
2017-04-22T11:25:03.396Z,965.63
2017-04-22T11:25:44.309Z,965.66
2017-04-22T11:26:24.889Z,965.64
2017-04-22T11:27:05.801Z,965.61
2017-04-22T11:27:46.469Z,965.61
2017-04-22T11:28:27.303Z,965.64
2017-04-22T11:29:07.927Z,965.59
2017-04-22T11:29:48.530Z,965.66
2017-04-22T11:30:29.488Z,965.56
2017-04-22T11:31:10.257Z,965.62
2017-04-22T11:31:50.849Z,965.65
2017-04-22T11:32:31.597Z,965.6
2017-04-22T11:33:12.531Z,965.6
2017-04-22T11:33:53.113Z,965.57
2017-04-22T11:34:33.695Z,965.57
2017-04-22T11:35:15.347Z,965.57
2017-04-22T11:35:55.594Z,965.56
2017-04-22T11:36:36.617Z,965.57
2017-04-22T11:37:17.527Z,965.58
2017-04-22T11:37:58.100Z,965.58
2017-04-22T11:38:38.686Z,965.54
2017-04-22T11:39:19.264Z,965.61
2017-04-22T11:39:59.849Z,965.61
2017-04-22T11:40:40.423Z,965.53
2017-04-22T11:41:21.048Z,965.48
2017-04-22T11:42:01.619Z,965.51
2017-04-22T11:42:42.197Z,965.54
2017-04-22T11:43:22.941Z,965.51
2017-04-22T11:44:03.530Z,965.6
2017-04-22T11:44:44.356Z,965.55
2017-04-22T11:45:25.275Z,965.54
2017-04-22T11:46:06.235Z,965.51
2017-04-22T11:46:46.860Z,965.51
2017-04-22T11:47:27.602Z,965.53
2017-04-22T11:48:08.304Z,965.61
2017-04-22T11:48:49.135Z,965.46
2017-04-22T11:49:30.240Z,965.55
2017-04-22T11:50:11.297Z,965.52
2017-04-22T11:50:51.883Z,965.47
2017-04-22T11:51:32.941Z,965.46
2017-04-22T11:52:13.529Z,965.44
2017-04-22T11:52:54.123Z,965.45
2017-04-22T11:53:34.700Z,965.43
2017-04-22T11:54:15.599Z,965.39
2017-04-22T11:54:56.171Z,965.48
2017-04-22T11:55:36.746Z,965.48
2017-04-22T11:56:17.336Z,965.46
2017-04-22T11:56:57.931Z,965.5
2017-04-22T11:57:38.510Z,965.53
2017-04-22T11:58:19.105Z,965.47
2017-04-22T11:58:59.684Z,965.37
2017-04-22T11:59:40.266Z,965.43
2017-04-22T12:00:20.850Z,965.44
2017-04-22T12:01:01.433Z,965.4
2017-04-22T12:01:42.022Z,965.44
2017-04-22T12:02:22.604Z,965.44
2017-04-22T12:03:03.191Z,965.38
2017-04-22T12:03:43.777Z,965.42
2017-04-22T12:04:24.363Z,965.41
2017-04-22T12:05:04.940Z,965.37
2017-04-22T12:05:45.609Z,965.42
2017-04-22T12:06:26.172Z,965.37
2017-04-22T12:07:06.755Z,965.37
2017-04-22T12:07:47.358Z,965.38
2017-04-22T12:08:27.938Z,965.35
2017-04-22T12:09:08.554Z,965.36
2017-04-22T12:09:49.141Z,965.31
2017-04-22T12:10:29.800Z,965.29
2017-04-22T12:11:10.397Z,965.31
2017-04-22T12:11:50.986Z,965.29
2017-04-22T12:12:31.570Z,965.31
2017-04-22T12:13:12.158Z,965.3
2017-04-22T12:13:52.736Z,965.26
2017-04-22T12:14:33.326Z,965.34
2017-04-22T12:15:13.996Z,965.26
2017-04-22T12:15:54.582Z,965.28
2017-04-22T12:16:35.194Z,965.24
2017-04-22T12:17:15.779Z,965.26
2017-04-22T12:17:56.353Z,965.24
2017-04-22T12:18:36.941Z,965.22
2017-04-22T12:19:17.521Z,965.22
2017-04-22T12:19:58.107Z,965.26
2017-04-22T12:20:38.689Z,965.2
2017-04-22T12:21:19.279Z,965.22
2017-04-22T12:21:59.890Z,965.19
2017-04-22T12:22:40.656Z,965.22
2017-04-22T12:23:21.248Z,965.19
2017-04-22T12:24:01.834Z,965.2
2017-04-22T12:24:42.423Z,965.2
2017-04-22T12:25:23.000Z,965.17
2017-04-22T12:26:03.594Z,965.17
2017-04-22T12:26:44.180Z,965.18
2017-04-22T12:27:24.761Z,965.17
2017-04-22T12:28:05.349Z,965.13
2017-04-22T12:28:45.937Z,965.13
2017-04-22T12:29:26.525Z,965.17
2017-04-22T12:30:07.112Z,965.19
2017-04-22T12:30:47.704Z,965.2
2017-04-22T12:31:28.285Z,965.16
2017-04-22T12:32:08.867Z,965.17
2017-04-22T12:32:49.445Z,965.14
2017-04-22T12:33:30.030Z,965.16
2017-04-22T12:34:10.613Z,965.16
2017-04-22T12:34:51.191Z,965.18
2017-04-22T12:35:31.782Z,965.18
2017-04-22T12:36:12.369Z,965.14
2017-04-22T12:36:52.953Z,965.14
2017-04-22T12:37:33.533Z,965.11
2017-04-22T12:38:14.117Z,965.11
2017-04-22T12:38:54.700Z,965.11
2017-04-22T12:39:35.286Z,965.1
2017-04-22T12:40:15.875Z,965.1
2017-04-22T12:40:56.455Z,965.11
2017-04-22T12:41:37.044Z,965.11
2017-04-22T12:42:17.633Z,965.16
2017-04-22T12:42:58.207Z,965.11
2017-04-22T12:43:38.775Z,965.05
2017-04-22T12:44:19.377Z,965.07
2017-04-22T12:44:59.960Z,965.07
2017-04-22T12:45:40.551Z,965.11
2017-04-22T12:46:21.138Z,965.06
2017-04-22T12:47:01.714Z,965.05
2017-04-22T12:47:42.298Z,965.01
2017-04-22T12:48:22.886Z,965.13
2017-04-22T12:49:03.470Z,965.1
2017-04-22T12:49:44.061Z,965.07
2017-04-22T12:50:24.640Z,965.06
2017-04-22T12:51:05.225Z,965.06
2017-04-22T12:51:45.809Z,965.02
2017-04-22T12:52:26.393Z,965.05
2017-04-22T12:53:06.982Z,965.03
2017-04-22T12:53:47.563Z,965.02
2017-04-22T12:54:28.138Z,965
2017-04-22T12:55:08.719Z,965.06
2017-04-22T12:55:49.314Z,965.01
2017-04-22T12:56:29.897Z,965
2017-04-22T12:57:10.478Z,965.02
2017-04-22T12:57:51.118Z,965.08
2017-04-22T12:58:31.697Z,965.06
2017-04-22T12:59:12.285Z,964.98
2017-04-22T12:59:52.887Z,965
2017-04-22T13:00:33.477Z,964.98
2017-04-22T13:01:14.058Z,965.02
2017-04-22T13:01:54.637Z,965.03
2017-04-22T13:02:35.215Z,964.98
2017-04-22T13:03:15.818Z,964.99
2017-04-22T13:03:56.404Z,964.96
2017-04-22T13:04:36.985Z,965
2017-04-22T13:05:17.577Z,964.94
2017-04-22T13:05:58.158Z,964.96
2017-04-22T13:06:38.746Z,964.96
2017-04-22T13:07:19.333Z,964.96
2017-04-22T13:07:59.914Z,964.86
2017-04-22T13:08:40.501Z,964.93
2017-04-22T13:09:21.085Z,964.92
2017-04-22T13:10:01.669Z,964.95
2017-04-22T13:10:42.252Z,964.9
2017-04-22T13:11:22.868Z,964.94
2017-04-22T13:12:03.455Z,964.84
2017-04-22T13:12:44.040Z,964.89
2017-04-22T13:13:24.617Z,964.89
2017-04-22T13:14:05.199Z,964.88
2017-04-22T13:14:45.786Z,964.88
2017-04-22T13:15:27.299Z,964.86
2017-04-22T13:16:08.363Z,964.81
2017-04-22T13:16:49.020Z,964.78
2017-04-22T13:17:29.773Z,964.75
2017-04-22T13:18:10.362Z,964.77
2017-04-22T13:18:50.947Z,964.77
2017-04-22T13:19:31.529Z,964.76
2017-04-22T13:20:12.391Z,964.72
2017-04-22T13:20:53.112Z,964.74
2017-04-22T13:21:33.981Z,964.71
2017-04-22T13:22:14.568Z,964.69
2017-04-22T13:22:55.285Z,964.7
2017-04-22T13:23:35.958Z,964.68
2017-04-22T13:24:16.550Z,964.66
2017-04-22T13:24:57.332Z,964.71
2017-04-22T13:25:37.922Z,964.69
2017-04-22T13:26:18.508Z,964.64
2017-04-22T13:26:59.193Z,964.61
2017-04-22T13:27:39.778Z,964.63
2017-04-22T13:28:20.426Z,964.64
2017-04-22T13:29:01.007Z,964.63
2017-04-22T13:29:41.590Z,964.62
2017-04-22T13:30:22.644Z,964.63
2017-04-22T13:31:03.233Z,964.62
2017-04-22T13:31:43.816Z,964.55
2017-04-22T13:32:24.401Z,964.58
2017-04-22T13:33:04.988Z,964.64
2017-04-22T13:33:45.578Z,964.58
2017-04-22T13:34:26.279Z,964.57
2017-04-22T13:35:06.863Z,964.53
2017-04-22T13:35:47.606Z,964.6
2017-04-22T13:36:28.443Z,964.58
2017-04-22T13:37:09.027Z,964.55
2017-04-22T13:37:49.706Z,964.53
2017-04-22T13:38:30.338Z,964.5
2017-04-22T13:39:10.915Z,964.54
2017-04-22T13:39:51.503Z,964.51
2017-04-22T13:40:32.083Z,964.52
2017-04-22T13:41:12.668Z,964.48
2017-04-22T13:41:53.257Z,964.48
2017-04-22T13:42:34.075Z,964.5
2017-04-22T13:43:14.664Z,964.5
2017-04-22T13:43:55.242Z,964.53
2017-04-22T13:44:36.066Z,964.5
2017-04-22T13:45:16.654Z,964.55
2017-04-22T13:45:57.237Z,964.51
2017-04-22T13:46:37.821Z,964.5
2017-04-22T13:47:18.406Z,964.56
2017-04-22T13:47:58.995Z,964.54
2017-04-22T13:48:39.568Z,964.49
2017-04-22T13:49:20.183Z,964.47
2017-04-22T13:50:00.739Z,964.51
2017-04-22T13:50:41.328Z,964.53
2017-04-22T13:51:21.907Z,964.49
2017-04-22T13:52:02.495Z,964.51
2017-04-22T13:52:43.084Z,964.54
2017-04-22T13:53:23.668Z,964.45
2017-04-22T13:54:04.254Z,964.46
2017-04-22T13:54:44.834Z,964.43
2017-04-22T13:55:25.418Z,964.41
2017-04-22T13:56:06.001Z,964.39
2017-04-22T13:56:46.587Z,964.37
2017-04-22T13:57:27.166Z,964.41
2017-04-22T13:58:07.749Z,964.39
2017-04-22T13:58:48.333Z,964.38
2017-04-22T13:59:28.915Z,964.37
2017-04-22T14:00:09.500Z,964.38
2017-04-22T14:00:50.083Z,964.33
2017-04-22T14:01:30.672Z,964.24
2017-04-22T14:02:11.263Z,964.2
2017-04-22T14:02:51.846Z,964.32
2017-04-22T14:03:32.440Z,964.28
2017-04-22T14:04:13.026Z,964.22
2017-04-22T14:04:53.606Z,964.24
2017-04-22T14:05:34.187Z,964.25
2017-04-22T14:06:14.778Z,964.27
2017-04-22T14:06:55.363Z,964.23
2017-04-22T14:07:35.952Z,964.24
2017-04-22T14:08:16.538Z,964.26
2017-04-22T14:08:57.127Z,964.23
2017-04-22T14:09:37.710Z,964.23
2017-04-22T14:10:18.300Z,964.26
2017-04-22T14:10:58.887Z,964.28
2017-04-22T14:11:39.472Z,964.27
2017-04-22T14:12:20.057Z,964.18
2017-04-22T14:13:00.640Z,964.21
2017-04-22T14:13:41.240Z,964.22
2017-04-22T14:14:21.823Z,964.17
2017-04-22T14:15:02.409Z,964.13
2017-04-22T14:15:42.987Z,964.19
2017-04-22T14:16:23.572Z,964.13
2017-04-22T14:17:04.157Z,964.14
2017-04-22T14:17:44.740Z,964.14
2017-04-22T14:18:25.332Z,964.13
2017-04-22T14:19:05.913Z,964.16
2017-04-22T14:19:46.488Z,964.12
2017-04-22T14:20:27.082Z,964.14
2017-04-22T14:21:07.659Z,964.16
2017-04-22T14:21:48.237Z,964.16
2017-04-22T14:22:28.825Z,964.15
2017-04-22T14:23:09.411Z,964.13
2017-04-22T14:23:50.002Z,964.14
2017-04-22T14:24:30.594Z,964.09
2017-04-22T14:25:11.198Z,964.09
2017-04-22T14:25:51.753Z,964.06
2017-04-22T14:26:32.331Z,964.11
2017-04-22T14:27:12.923Z,964.05
2017-04-22T14:27:53.510Z,964.08
2017-04-22T14:28:34.096Z,964.07
2017-04-22T14:29:14.686Z,964.07
2017-04-22T14:29:55.268Z,964.04
2017-04-22T14:30:35.854Z,964.09
2017-04-22T14:31:16.438Z,964.07
2017-04-22T14:31:57.032Z,964.01
2017-04-22T14:32:37.614Z,964.03
2017-04-22T14:33:18.197Z,964.04
2017-04-22T14:33:58.783Z,964.06
2017-04-22T14:34:39.375Z,964.07
2017-04-22T14:35:19.955Z,964.09
2017-04-22T14:36:00.539Z,964.1
2017-04-22T14:36:41.130Z,964.04
2017-04-22T14:37:21.718Z,964.02
2017-04-22T14:38:02.305Z,964.02
2017-04-22T14:38:42.883Z,964.08
2017-04-22T14:39:23.464Z,964.04
2017-04-22T14:40:04.036Z,964.06
2017-04-22T14:40:44.619Z,964.03
2017-04-22T14:41:25.206Z,964.01
2017-04-22T14:42:05.791Z,963.99
2017-04-22T14:42:46.375Z,964
2017-04-22T14:43:26.956Z,964
2017-04-22T14:44:07.529Z,963.95
2017-04-22T14:44:48.347Z,964.03
2017-04-22T14:45:29.015Z,964.03
2017-04-22T14:46:10.021Z,964.01
2017-04-22T14:46:50.693Z,964
2017-04-22T14:47:31.265Z,964.04
2017-04-22T14:48:11.852Z,964.06
2017-04-22T14:48:52.426Z,964.02
2017-04-22T14:49:33.012Z,964.02
2017-04-22T14:50:13.593Z,964.02
2017-04-22T14:50:54.264Z,964.04
2017-04-22T14:51:35.246Z,964
2017-04-22T14:52:15.986Z,964.03
2017-04-22T14:52:56.566Z,964.02
2017-04-22T14:53:37.367Z,964
2017-04-22T14:54:18.339Z,964
2017-04-22T14:54:59.388Z,964.02
2017-04-22T14:55:40.183Z,964.03
2017-04-22T14:56:20.774Z,964.03
2017-04-22T14:57:01.357Z,964.01
2017-04-22T14:57:42.184Z,964.02
2017-04-22T14:58:22.900Z,964.03
2017-04-22T14:59:03.616Z,964.02
2017-04-22T14:59:44.403Z,964.03